sensor_id;sensor_type;location;lat;lon;timestamp;temperature;humidity
11944;DHT22;6031;50.220;10.122;2022-12-24T00:02:10;10.20;99.90
11944;DHT22;6031;50.220;10.122;2022-12-24T00:04:36;10.30;99.90
11944;DHT22;6031;50.220;10.122;2022-12-24T00:07:02;10.30;99.90
11944;DHT22;6031;50.220;10.122;2022-12-24T00:09:27;10.40;99.90
11944;DHT22;6031;50.220;10.122;2022-12-24T00:11:53;10.30;99.90
11944;DHT22;6031;50.220;10.122;2022-12-24T00:14:19;10.20;99.90
11944;DHT22;6031;50.220;10.122;2022-12-24T00:16:44;10.30;99.90
11944;DHT22;6031;50.220;10.122;2022-12-24T00:19:10;10.30;99.90
11944;DHT22;6031;50.220;10.122;2022-12-24T00:21:36;10.30;99.90
11944;DHT22;6031;50.220;10.122;2022-12-24T00:24:01;10.30;99.90
11944;DHT22;6031;50.220;10.122;2022-12-24T00:26:28;10.30;99.90
11944;DHT22;6031;50.220;10.122;2022-12-24T00:28:54;10.30;99.90
11944;DHT22;6031;50.220;10.122;2022-12-24T00:31:19;10.50;99.90
11944;DHT22;6031;50.220;10.122;2022-12-24T00:33:46;10.50;99.90
11944;DHT22;6031;50.220;10.122;2022-12-24T00:36:11;10.50;99.90
11944;DHT22;6031;50.220;10.122;2022-12-24T00:38:37;10.50;99.90
11944;DHT22;6031;50.220;10.122;2022-12-24T00:41:05;10.50;99.90
11944;DHT22;6031;50.220;10.122;2022-12-24T00:43:31;10.50;99.90
11944;DHT22;6031;50.220;10.122;2022-12-24T00:45:58;10.40;99.90
11944;DHT22;6031;50.220;10.122;2022-12-24T00:48:23;10.40;99.90
11944;DHT22;6031;50.220;10.122;2022-12-24T00:50:50;10.30;99.90
11944;DHT22;6031;50.220;10.122;2022-12-24T00:53:16;10.30;99.90
11944;DHT22;6031;50.220;10.122;2022-12-24T00:55:42;10.30;99.90
11944;DHT22;6031;50.220;10.122;2022-12-24T00:58:07;10.30;99.90
11944;DHT22;6031;50.220;10.122;2022-12-24T01:00:33;10.30;99.90
11944;DHT22;6031;50.220;10.122;2022-12-24T01:02:58;10.20;99.90
11944;DHT22;6031;50.220;10.122;2022-12-24T01:05:24;10.30;99.90
11944;DHT22;6031;50.220;10.122;2022-12-24T01:07:49;10.30;99.90
11944;DHT22;6031;50.220;10.122;2022-12-24T01:10:19;10.30;99.90
11944;DHT22;6031;50.220;10.122;2022-12-24T01:12:45;10.20;99.90
11944;DHT22;6031;50.220;10.122;2022-12-24T01:15:12;10.10;99.90
11944;DHT22;6031;50.220;10.122;2022-12-24T01:17:39;10.10;99.90
11944;DHT22;6031;50.220;10.122;2022-12-24T01:20:09;10.10;99.90
11944;DHT22;6031;50.220;10.122;2022-12-24T01:22:37;10.20;99.90
11944;DHT22;6031;50.220;10.122;2022-12-24T01:25:02;10.10;99.90
11944;DHT22;6031;50.220;10.122;2022-12-24T01:27:28;10.10;99.90
11944;DHT22;6031;50.220;10.122;2022-12-24T01:29:54;10.10;99.90
11944;DHT22;6031;50.220;10.122;2022-12-24T01:32:20;10.00;99.90
11944;DHT22;6031;50.220;10.122;2022-12-24T01:34:45;9.90;99.90
11944;DHT22;6031;50.220;10.122;2022-12-24T01:37:11;10.00;99.90
11944;DHT22;6031;50.220;10.122;2022-12-24T01:39:36;9.90;99.90
11944;DHT22;6031;50.220;10.122;2022-12-24T01:42:08;9.90;99.90
11944;DHT22;6031;50.220;10.122;2022-12-24T01:44:53;9.80;99.90
11944;DHT22;6031;50.220;10.122;2022-12-24T01:47:28;9.80;99.90
11944;DHT22;6031;50.220;10.122;2022-12-24T01:49:57;9.80;99.90
11944;DHT22;6031;50.220;10.122;2022-12-24T01:52:27;9.60;99.90
11944;DHT22;6031;50.220;10.122;2022-12-24T01:54:57;9.60;99.90
11944;DHT22;6031;50.220;10.122;2022-12-24T01:57:30;9.60;99.90
11944;DHT22;6031;50.220;10.122;2022-12-24T02:00:02;9.70;99.90
11944;DHT22;6031;50.220;10.122;2022-12-24T02:02:28;9.70;99.90
11944;DHT22;6031;50.220;10.122;2022-12-24T02:05:00;9.70;99.90
11944;DHT22;6031;50.220;10.122;2022-12-24T02:07:27;9.80;99.90
11944;DHT22;6031;50.220;10.122;2022-12-24T02:09:56;9.70;99.90
11944;DHT22;6031;50.220;10.122;2022-12-24T02:12:22;9.70;99.90
11944;DHT22;6031;50.220;10.122;2022-12-24T02:14:48;9.60;99.90
11944;DHT22;6031;50.220;10.122;2022-12-24T02:20:05;9.60;99.90
11944;DHT22;6031;50.220;10.122;2022-12-24T02:22:42;9.70;99.90
11944;DHT22;6031;50.220;10.122;2022-12-24T02:25:11;9.60;99.90
11944;DHT22;6031;50.220;10.122;2022-12-24T02:28:29;9.50;99.90
11944;DHT22;6031;50.220;10.122;2022-12-24T02:30:51;9.50;99.90
11944;DHT22;6031;50.220;10.122;2022-12-24T02:33:44;9.60;99.90
11944;DHT22;6031;50.220;10.122;2022-12-24T02:36:39;9.50;99.90
11944;DHT22;6031;50.220;10.122;2022-12-24T02:39:18;9.50;99.90
11944;DHT22;6031;50.220;10.122;2022-12-24T02:41:49;9.60;99.90
11944;DHT22;6031;50.220;10.122;2022-12-24T02:44:40;9.60;99.90
11944;DHT22;6031;50.220;10.122;2022-12-24T02:47:09;9.60;99.90
11944;DHT22;6031;50.220;10.122;2022-12-24T02:49:35;9.40;99.90
11944;DHT22;6031;50.220;10.122;2022-12-24T02:52:00;9.30;99.90
11944;DHT22;6031;50.220;10.122;2022-12-24T02:54:26;9.30;99.90
11944;DHT22;6031;50.220;10.122;2022-12-24T02:57:19;9.40;99.90
11944;DHT22;6031;50.220;10.122;2022-12-24T03:00:07;9.50;99.90
11944;DHT22;6031;50.220;10.122;2022-12-24T03:02:58;9.50;99.90
11944;DHT22;6031;50.220;10.122;2022-12-24T03:05:29;9.50;99.90
11944;DHT22;6031;50.220;10.122;2022-12-24T03:13:19;9.50;99.90
11944;DHT22;6031;50.220;10.122;2022-12-24T03:15:46;9.40;99.90
11944;DHT22;6031;50.220;10.122;2022-12-24T03:18:16;9.40;99.90
11944;DHT22;6031;50.220;10.122;2022-12-24T03:20:49;9.30;99.90
11944;DHT22;6031;50.220;10.122;2022-12-24T03:23:17;9.20;99.90
11944;DHT22;6031;50.220;10.122;2022-12-24T03:25:43;9.20;99.90
11944;DHT22;6031;50.220;10.122;2022-12-24T03:28:13;9.10;99.90
11944;DHT22;6031;50.220;10.122;2022-12-24T03:30:41;9.10;99.90
11944;DHT22;6031;50.220;10.122;2022-12-24T03:33:08;9.10;99.90
11944;DHT22;6031;50.220;10.122;2022-12-24T03:35:33;9.30;99.90
11944;DHT22;6031;50.220;10.122;2022-12-24T03:37:59;9.30;99.90
11944;DHT22;6031;50.220;10.122;2022-12-24T03:40:24;9.30;99.90
11944;DHT22;6031;50.220;10.122;2022-12-24T03:42:50;9.40;99.90
11944;DHT22;6031;50.220;10.122;2022-12-24T03:45:15;9.50;99.90
11944;DHT22;6031;50.220;10.122;2022-12-24T03:47:41;9.40;99.90
11944;DHT22;6031;50.220;10.122;2022-12-24T03:50:07;9.30;99.90
11944;DHT22;6031;50.220;10.122;2022-12-24T03:52:32;9.40;99.90
11944;DHT22;6031;50.220;10.122;2022-12-24T03:54:58;9.40;99.90
11944;DHT22;6031;50.220;10.122;2022-12-24T03:57:23;9.40;99.90
11944;DHT22;6031;50.220;10.122;2022-12-24T03:59:49;9.50;99.90
11944;DHT22;6031;50.220;10.122;2022-12-24T04:02:14;9.50;99.90
11944;DHT22;6031;50.220;10.122;2022-12-24T04:04:40;9.50;99.90
11944;DHT22;6031;50.220;10.122;2022-12-24T04:07:05;9.50;99.90
11944;DHT22;6031;50.220;10.122;2022-12-24T04:09:31;9.50;99.90
11944;DHT22;6031;50.220;10.122;2022-12-24T04:11:57;9.50;99.90
11944;DHT22;6031;50.220;10.122;2022-12-24T04:14:22;9.40;99.90
11944;DHT22;6031;50.220;10.122;2022-12-24T04:16:48;9.40;99.90
11944;DHT22;6031;50.220;10.122;2022-12-24T04:19:13;9.40;99.90
11944;DHT22;6031;50.220;10.122;2022-12-24T04:21:39;9.30;99.90
11944;DHT22;6031;50.220;10.122;2022-12-24T04:24:05;9.40;99.90
11944;DHT22;6031;50.220;10.122;2022-12-24T04:26:30;9.40;99.90
11944;DHT22;6031;50.220;10.122;2022-12-24T04:28:56;9.30;99.90
11944;DHT22;6031;50.220;10.122;2022-12-24T04:31:21;9.30;99.90
11944;DHT22;6031;50.220;10.122;2022-12-24T04:33:47;9.40;99.90
11944;DHT22;6031;50.220;10.122;2022-12-24T04:36:16;9.50;99.90
11944;DHT22;6031;50.220;10.122;2022-12-24T04:38:42;9.50;99.90
11944;DHT22;6031;50.220;10.122;2022-12-24T04:41:11;9.60;99.90
11944;DHT22;6031;50.220;10.122;2022-12-24T04:43:37;9.40;99.90
11944;DHT22;6031;50.220;10.122;2022-12-24T04:46:08;9.30;99.90
11944;DHT22;6031;50.220;10.122;2022-12-24T04:48:34;9.30;99.90
11944;DHT22;6031;50.220;10.122;2022-12-24T04:51:03;9.30;99.90
11944;DHT22;6031;50.220;10.122;2022-12-24T04:53:30;9.30;99.90
11944;DHT22;6031;50.220;10.122;2022-12-24T04:55:56;9.30;99.90
11944;DHT22;6031;50.220;10.122;2022-12-24T04:58:21;9.40;99.90
11944;DHT22;6031;50.220;10.122;2022-12-24T05:00:47;9.40;99.90
11944;DHT22;6031;50.220;10.122;2022-12-24T05:03:13;9.50;99.90
11944;DHT22;6031;50.220;10.122;2022-12-24T05:05:38;9.40;99.90
11944;DHT22;6031;50.220;10.122;2022-12-24T05:08:04;9.40;99.90
11944;DHT22;6031;50.220;10.122;2022-12-24T05:10:29;9.20;99.90
11944;DHT22;6031;50.220;10.122;2022-12-24T05:12:55;9.10;99.90
11944;DHT22;6031;50.220;10.122;2022-12-24T05:15:20;9.00;99.90
11944;DHT22;6031;50.220;10.122;2022-12-24T05:17:46;9.10;99.90
11944;DHT22;6031;50.220;10.122;2022-12-24T05:20:11;9.10;99.90
11944;DHT22;6031;50.220;10.122;2022-12-24T05:22:37;9.10;99.90
11944;DHT22;6031;50.220;10.122;2022-12-24T05:25:21;9.30;99.90
11944;DHT22;6031;50.220;10.122;2022-12-24T05:28:05;9.30;99.90
11944;DHT22;6031;50.220;10.122;2022-12-24T05:30:30;9.40;99.90
11944;DHT22;6031;50.220;10.122;2022-12-24T05:32:56;9.30;99.90
11944;DHT22;6031;50.220;10.122;2022-12-24T05:35:21;9.30;99.90
11944;DHT22;6031;50.220;10.122;2022-12-24T05:37:47;9.30;99.90
11944;DHT22;6031;50.220;10.122;2022-12-24T05:40:13;9.30;99.90
11944;DHT22;6031;50.220;10.122;2022-12-24T05:42:38;9.30;99.90
11944;DHT22;6031;50.220;10.122;2022-12-24T05:45:04;9.40;99.90
11944;DHT22;6031;50.220;10.122;2022-12-24T05:47:29;9.40;99.90
11944;DHT22;6031;50.220;10.122;2022-12-24T05:49:55;9.40;99.90
11944;DHT22;6031;50.220;10.122;2022-12-24T05:52:20;9.40;99.90
11944;DHT22;6031;50.220;10.122;2022-12-24T05:54:46;9.40;99.90
11944;DHT22;6031;50.220;10.122;2022-12-24T05:57:11;9.30;99.90
11944;DHT22;6031;50.220;10.122;2022-12-24T05:59:37;9.30;99.90
11944;DHT22;6031;50.220;10.122;2022-12-24T06:02:03;9.40;99.90
11944;DHT22;6031;50.220;10.122;2022-12-24T06:04:28;9.40;99.90
11944;DHT22;6031;50.220;10.122;2022-12-24T06:06:54;9.30;99.90
11944;DHT22;6031;50.220;10.122;2022-12-24T06:09:19;9.30;99.90
11944;DHT22;6031;50.220;10.122;2022-12-24T06:11:45;9.30;99.90
11944;DHT22;6031;50.220;10.122;2022-12-24T06:14:10;9.40;99.90
11944;DHT22;6031;50.220;10.122;2022-12-24T06:16:35;9.50;99.90
11944;DHT22;6031;50.220;10.122;2022-12-24T06:19:01;9.40;99.90
11944;DHT22;6031;50.220;10.122;2022-12-24T06:21:27;9.40;99.90
11944;DHT22;6031;50.220;10.122;2022-12-24T06:23:52;9.40;99.90
11944;DHT22;6031;50.220;10.122;2022-12-24T06:26:20;9.40;99.90
11944;DHT22;6031;50.220;10.122;2022-12-24T06:28:47;9.50;99.90
11944;DHT22;6031;50.220;10.122;2022-12-24T06:31:15;9.50;99.90
11944;DHT22;6031;50.220;10.122;2022-12-24T06:33:41;9.50;99.90
11944;DHT22;6031;50.220;10.122;2022-12-24T06:36:09;9.40;99.90
11944;DHT22;6031;50.220;10.122;2022-12-24T06:38:34;9.40;99.90
11944;DHT22;6031;50.220;10.122;2022-12-24T06:41:04;9.40;99.90
11944;DHT22;6031;50.220;10.122;2022-12-24T06:43:30;9.30;99.90
11944;DHT22;6031;50.220;10.122;2022-12-24T06:45:58;9.40;99.90
11944;DHT22;6031;50.220;10.122;2022-12-24T06:48:24;9.40;99.90
11944;DHT22;6031;50.220;10.122;2022-12-24T06:50:50;9.30;99.90
11944;DHT22;6031;50.220;10.122;2022-12-24T06:53:15;9.20;99.90
11944;DHT22;6031;50.220;10.122;2022-12-24T06:55:41;9.10;99.90
11944;DHT22;6031;50.220;10.122;2022-12-24T06:58:06;8.90;99.90
11944;DHT22;6031;50.220;10.122;2022-12-24T07:00:32;8.80;99.90
11944;DHT22;6031;50.220;10.122;2022-12-24T07:02:58;8.70;99.90
11944;DHT22;6031;50.220;10.122;2022-12-24T07:05:23;8.60;99.90
11944;DHT22;6031;50.220;10.122;2022-12-24T07:07:49;8.90;99.90
11944;DHT22;6031;50.220;10.122;2022-12-24T07:10:16;8.80;99.90
11944;DHT22;6031;50.220;10.122;2022-12-24T07:12:42;8.90;99.90
11944;DHT22;6031;50.220;10.122;2022-12-24T07:15:08;9.00;99.90
11944;DHT22;6031;50.220;10.122;2022-12-24T07:17:34;9.00;99.90
11944;DHT22;6031;50.220;10.122;2022-12-24T07:19:59;9.00;99.90
11944;DHT22;6031;50.220;10.122;2022-12-24T07:22:25;8.90;99.90
11944;DHT22;6031;50.220;10.122;2022-12-24T07:24:51;8.90;99.90
11944;DHT22;6031;50.220;10.122;2022-12-24T07:27:16;8.80;99.90
11944;DHT22;6031;50.220;10.122;2022-12-24T07:29:42;8.80;99.90
11944;DHT22;6031;50.220;10.122;2022-12-24T07:32:07;8.80;99.90
11944;DHT22;6031;50.220;10.122;2022-12-24T07:34:33;8.70;99.90
11944;DHT22;6031;50.220;10.122;2022-12-24T07:36:58;8.60;99.90
11944;DHT22;6031;50.220;10.122;2022-12-24T07:39:24;8.60;99.90
11944;DHT22;6031;50.220;10.122;2022-12-24T07:41:49;8.60;99.90
11944;DHT22;6031;50.220;10.122;2022-12-24T07:44:15;8.60;99.90
11944;DHT22;6031;50.220;10.122;2022-12-24T07:46:41;8.70;99.90
11944;DHT22;6031;50.220;10.122;2022-12-24T07:49:06;8.70;99.90
11944;DHT22;6031;50.220;10.122;2022-12-24T07:51:32;8.80;99.90
11944;DHT22;6031;50.220;10.122;2022-12-24T07:53:58;8.90;99.90
11944;DHT22;6031;50.220;10.122;2022-12-24T07:56:23;9.00;99.90
11944;DHT22;6031;50.220;10.122;2022-12-24T07:58:50;9.00;99.90
11944;DHT22;6031;50.220;10.122;2022-12-24T08:01:16;9.10;99.90
11944;DHT22;6031;50.220;10.122;2022-12-24T08:03:42;9.20;99.90
11944;DHT22;6031;50.220;10.122;2022-12-24T08:06:08;9.20;99.90
11944;DHT22;6031;50.220;10.122;2022-12-24T08:08:33;9.20;99.90
11944;DHT22;6031;50.220;10.122;2022-12-24T08:11:01;9.30;99.90
11944;DHT22;6031;50.220;10.122;2022-12-24T08:13:27;9.30;99.90
11944;DHT22;6031;50.220;10.122;2022-12-24T08:15:53;9.40;99.90
11944;DHT22;6031;50.220;10.122;2022-12-24T08:18:18;9.40;99.90
11944;DHT22;6031;50.220;10.122;2022-12-24T08:20:44;9.50;99.90
11944;DHT22;6031;50.220;10.122;2022-12-24T08:23:09;9.50;99.90
11944;DHT22;6031;50.220;10.122;2022-12-24T08:25:35;9.50;99.90
11944;DHT22;6031;50.220;10.122;2022-12-24T08:28:02;9.60;99.90
11944;DHT22;6031;50.220;10.122;2022-12-24T08:30:28;9.70;99.90
11944;DHT22;6031;50.220;10.122;2022-12-24T08:32:53;9.70;99.90
11944;DHT22;6031;50.220;10.122;2022-12-24T08:35:19;9.70;99.90
11944;DHT22;6031;50.220;10.122;2022-12-24T08:37:45;9.70;99.90
11944;DHT22;6031;50.220;10.122;2022-12-24T08:40:11;9.70;99.90
11944;DHT22;6031;50.220;10.122;2022-12-24T08:42:37;9.70;99.90
11944;DHT22;6031;50.220;10.122;2022-12-24T08:45:02;9.70;99.90
11944;DHT22;6031;50.220;10.122;2022-12-24T08:47:28;9.70;99.90
11944;DHT22;6031;50.220;10.122;2022-12-24T08:49:53;9.80;99.90
11944;DHT22;6031;50.220;10.122;2022-12-24T08:52:19;9.80;99.90
11944;DHT22;6031;50.220;10.122;2022-12-24T08:54:44;9.80;99.90
11944;DHT22;6031;50.220;10.122;2022-12-24T08:57:10;9.80;99.90
11944;DHT22;6031;50.220;10.122;2022-12-24T08:59:36;9.80;99.90
11944;DHT22;6031;50.220;10.122;2022-12-24T09:02:01;9.80;99.90
11944;DHT22;6031;50.220;10.122;2022-12-24T09:04:27;9.90;99.90
11944;DHT22;6031;50.220;10.122;2022-12-24T09:06:52;9.90;99.90
11944;DHT22;6031;50.220;10.122;2022-12-24T09:09:18;10.00;99.90
11944;DHT22;6031;50.220;10.122;2022-12-24T09:11:43;10.00;99.90
11944;DHT22;6031;50.220;10.122;2022-12-24T09:14:09;10.00;99.90
11944;DHT22;6031;50.220;10.122;2022-12-24T09:16:35;10.10;99.90
11944;DHT22;6031;50.220;10.122;2022-12-24T09:19:00;10.20;99.90
11944;DHT22;6031;50.220;10.122;2022-12-24T09:21:26;10.10;99.90
11944;DHT22;6031;50.220;10.122;2022-12-24T09:23:51;10.20;99.90
11944;DHT22;6031;50.220;10.122;2022-12-24T09:26:23;10.10;99.90
11944;DHT22;6031;50.220;10.122;2022-12-24T09:28:49;10.10;99.90
11944;DHT22;6031;50.220;10.122;2022-12-24T09:31:15;10.10;99.90
11944;DHT22;6031;50.220;10.122;2022-12-24T09:33:42;10.00;99.90
11944;DHT22;6031;50.220;10.122;2022-12-24T09:36:08;9.90;99.90
11944;DHT22;6031;50.220;10.122;2022-12-24T09:38:34;9.90;99.90
11944;DHT22;6031;50.220;10.122;2022-12-24T09:41:14;9.80;99.90
11944;DHT22;6031;50.220;10.122;2022-12-24T09:43:46;9.80;99.90
11944;DHT22;6031;50.220;10.122;2022-12-24T09:46:50;9.70;99.90
11944;DHT22;6031;50.220;10.122;2022-12-24T09:49:20;9.70;99.90
11944;DHT22;6031;50.220;10.122;2022-12-24T09:51:57;9.70;99.90
11944;DHT22;6031;50.220;10.122;2022-12-24T09:54:30;9.80;99.90
11944;DHT22;6031;50.220;10.122;2022-12-24T09:57:00;9.90;99.90
11944;DHT22;6031;50.220;10.122;2022-12-24T09:59:40;10.10;99.90
11944;DHT22;6031;50.220;10.122;2022-12-24T10:02:11;10.20;99.90
11944;DHT22;6031;50.220;10.122;2022-12-24T10:04:38;10.40;99.90
11944;DHT22;6031;50.220;10.122;2022-12-24T10:09:53;10.50;99.90
11944;DHT22;6031;50.220;10.122;2022-12-24T10:15:22;10.40;99.90
11944;DHT22;6031;50.220;10.122;2022-12-24T10:18:18;10.40;99.90
11944;DHT22;6031;50.220;10.122;2022-12-24T10:21:05;10.30;99.90
11944;DHT22;6031;50.220;10.122;2022-12-24T10:23:47;10.40;99.90
11944;DHT22;6031;50.220;10.122;2022-12-24T10:26:37;10.40;99.90
11944;DHT22;6031;50.220;10.122;2022-12-24T10:29:18;10.40;99.90
11944;DHT22;6031;50.220;10.122;2022-12-24T10:31:55;10.40;99.90
11944;DHT22;6031;50.220;10.122;2022-12-24T10:34:25;10.30;99.90
11944;DHT22;6031;50.220;10.122;2022-12-24T10:36:52;10.40;99.90
11944;DHT22;6031;50.220;10.122;2022-12-24T10:39:20;10.40;99.90
11944;DHT22;6031;50.220;10.122;2022-12-24T10:41:49;10.40;99.90
11944;DHT22;6031;50.220;10.122;2022-12-24T10:44:17;10.40;99.90
11944;DHT22;6031;50.220;10.122;2022-12-24T10:46:45;10.40;99.90
11944;DHT22;6031;50.220;10.122;2022-12-24T10:49:35;10.40;99.90
11944;DHT22;6031;50.220;10.122;2022-12-24T10:52:05;10.50;99.90
11944;DHT22;6031;50.220;10.122;2022-12-24T10:54:34;10.60;99.90
11944;DHT22;6031;50.220;10.122;2022-12-24T10:57:04;10.80;99.90
11944;DHT22;6031;50.220;10.122;2022-12-24T10:59:48;11.10;99.90
11944;DHT22;6031;50.220;10.122;2022-12-24T11:02:33;11.30;99.90
11944;DHT22;6031;50.220;10.122;2022-12-24T11:05:00;11.30;99.90
11944;DHT22;6031;50.220;10.122;2022-12-24T11:07:28;11.30;99.90
11944;DHT22;6031;50.220;10.122;2022-12-24T11:10:02;11.40;99.90
11944;DHT22;6031;50.220;10.122;2022-12-24T11:12:39;11.70;99.90
11944;DHT22;6031;50.220;10.122;2022-12-24T11:15:31;11.70;99.90
11944;DHT22;6031;50.220;10.122;2022-12-24T11:18:02;11.70;99.90
11944;DHT22;6031;50.220;10.122;2022-12-24T11:20:33;11.50;99.90
11944;DHT22;6031;50.220;10.122;2022-12-24T11:23:00;11.40;99.90
11944;DHT22;6031;50.220;10.122;2022-12-24T11:25:28;11.40;99.90
11944;DHT22;6031;50.220;10.122;2022-12-24T11:27:54;11.40;99.90
11944;DHT22;6031;50.220;10.122;2022-12-24T11:30:25;11.40;99.90
11944;DHT22;6031;50.220;10.122;2022-12-24T11:35:26;11.30;99.90
11944;DHT22;6031;50.220;10.122;2022-12-24T11:38:09;11.30;99.90
11944;DHT22;6031;50.220;10.122;2022-12-24T11:41:20;11.40;99.90
11944;DHT22;6031;50.220;10.122;2022-12-24T11:43:27;11.40;99.90
11944;DHT22;6031;50.220;10.122;2022-12-24T11:46:41;12.20;99.90
11944;DHT22;6031;50.220;10.122;2022-12-24T11:54:56;12.00;99.90
11944;DHT22;6031;50.220;10.122;2022-12-24T11:57:30;11.70;99.90
11944;DHT22;6031;50.220;10.122;2022-12-24T11:59:56;11.40;99.90
11944;DHT22;6031;50.220;10.122;2022-12-24T12:02:25;11.30;99.90
11944;DHT22;6031;50.220;10.122;2022-12-24T12:05:20;11.20;99.90
11944;DHT22;6031;50.220;10.122;2022-12-24T12:07:46;11.20;99.90
11944;DHT22;6031;50.220;10.122;2022-12-24T12:10:21;11.20;99.90
11944;DHT22;6031;50.220;10.122;2022-12-24T12:12:57;11.20;99.90
11944;DHT22;6031;50.220;10.122;2022-12-24T12:15:28;11.20;99.90
11944;DHT22;6031;50.220;10.122;2022-12-24T12:18:08;11.20;99.90
11944;DHT22;6031;50.220;10.122;2022-12-24T12:20:38;11.20;99.90
11944;DHT22;6031;50.220;10.122;2022-12-24T12:26:00;11.20;99.90
11944;DHT22;6031;50.220;10.122;2022-12-24T12:28:42;11.30;99.90
11944;DHT22;6031;50.220;10.122;2022-12-24T12:31:14;11.50;99.90
11944;DHT22;6031;50.220;10.122;2022-12-24T12:36:14;11.90;99.90
11944;DHT22;6031;50.220;10.122;2022-12-24T12:38:42;11.70;99.90
11944;DHT22;6031;50.220;10.122;2022-12-24T12:41:48;11.60;99.90
11944;DHT22;6031;50.220;10.122;2022-12-24T12:44:21;11.40;99.90
11944;DHT22;6031;50.220;10.122;2022-12-24T12:52:27;11.20;99.90
11944;DHT22;6031;50.220;10.122;2022-12-24T12:55:26;11.20;99.90
11944;DHT22;6031;50.220;10.122;2022-12-24T12:58:00;11.40;99.90
11944;DHT22;6031;50.220;10.122;2022-12-24T13:00:29;11.60;99.90
11944;DHT22;6031;50.220;10.122;2022-12-24T13:05:59;11.40;99.90
11944;DHT22;6031;50.220;10.122;2022-12-24T13:14:28;11.30;99.90
11944;DHT22;6031;50.220;10.122;2022-12-24T13:20:09;11.30;99.90
11944;DHT22;6031;50.220;10.122;2022-12-24T13:22:38;11.30;99.90
11944;DHT22;6031;50.220;10.122;2022-12-24T13:25:04;11.70;99.90
11944;DHT22;6031;50.220;10.122;2022-12-24T13:27:31;12.00;99.90
11944;DHT22;6031;50.220;10.122;2022-12-24T13:30:01;12.10;99.90
11944;DHT22;6031;50.220;10.122;2022-12-24T13:35:00;12.80;99.90
11944;DHT22;6031;50.220;10.122;2022-12-24T13:48:00;10.90;99.90
11944;DHT22;6031;50.220;10.122;2022-12-24T13:51:26;10.80;99.90
11944;DHT22;6031;50.220;10.122;2022-12-24T13:53:42;10.70;99.90
11944;DHT22;6031;50.220;10.122;2022-12-24T13:58:40;10.50;99.90
11944;DHT22;6031;50.220;10.122;2022-12-24T14:01:12;10.50;99.90
11944;DHT22;6031;50.220;10.122;2022-12-24T14:03:57;10.50;99.90
11944;DHT22;6031;50.220;10.122;2022-12-24T14:06:26;10.50;99.90
11944;DHT22;6031;50.220;10.122;2022-12-24T14:14:29;10.50;99.90
11944;DHT22;6031;50.220;10.122;2022-12-24T14:16:57;10.50;99.90
11944;DHT22;6031;50.220;10.122;2022-12-24T14:19:49;10.50;99.90
11944;DHT22;6031;50.220;10.122;2022-12-24T14:22:33;10.60;99.90
11944;DHT22;6031;50.220;10.122;2022-12-24T14:25:08;10.60;99.90
11944;DHT22;6031;50.220;10.122;2022-12-24T14:27:45;10.60;99.90
11944;DHT22;6031;50.220;10.122;2022-12-24T14:32:40;10.50;99.90
11944;DHT22;6031;50.220;10.122;2022-12-24T14:37:38;10.40;99.90
11944;DHT22;6031;50.220;10.122;2022-12-24T14:40:05;10.30;99.90
11944;DHT22;6031;50.220;10.122;2022-12-24T14:42:44;10.20;99.90
11944;DHT22;6031;50.220;10.122;2022-12-24T14:51:21;9.80;99.90
11944;DHT22;6031;50.220;10.122;2022-12-24T14:56:39;9.50;99.90
11944;DHT22;6031;50.220;10.122;2022-12-24T14:59:19;9.40;99.90
11944;DHT22;6031;50.220;10.122;2022-12-24T15:01:44;9.30;99.90
11944;DHT22;6031;50.220;10.122;2022-12-24T15:06:41;9.30;99.90
11944;DHT22;6031;50.220;10.122;2022-12-24T15:09:28;9.20;99.90
11944;DHT22;6031;50.220;10.122;2022-12-24T15:11:57;9.00;99.90
11944;DHT22;6031;50.220;10.122;2022-12-24T15:14:26;8.90;99.90
11944;DHT22;6031;50.220;10.122;2022-12-24T15:17:03;8.90;99.90
11944;DHT22;6031;50.220;10.122;2022-12-24T15:19:37;9.00;99.90
11944;DHT22;6031;50.220;10.122;2022-12-24T15:22:08;8.90;99.90
11944;DHT22;6031;50.220;10.122;2022-12-24T15:24:36;8.90;99.90
11944;DHT22;6031;50.220;10.122;2022-12-24T15:27:16;8.90;99.90
11944;DHT22;6031;50.220;10.122;2022-12-24T15:29:45;8.90;99.90
11944;DHT22;6031;50.220;10.122;2022-12-24T15:32:12;8.90;99.90
11944;DHT22;6031;50.220;10.122;2022-12-24T15:34:41;9.00;99.90
11944;DHT22;6031;50.220;10.122;2022-12-24T15:39:56;9.00;99.90
11944;DHT22;6031;50.220;10.122;2022-12-24T15:42:23;8.90;99.90
11944;DHT22;6031;50.220;10.122;2022-12-24T15:45:02;8.80;99.90
11944;DHT22;6031;50.220;10.122;2022-12-24T15:47:34;8.70;99.90
11944;DHT22;6031;50.220;10.122;2022-12-24T15:50:23;8.70;99.90
11944;DHT22;6031;50.220;10.122;2022-12-24T15:52:51;8.80;99.90
11944;DHT22;6031;50.220;10.122;2022-12-24T15:55:46;8.80;99.90
11944;DHT22;6031;50.220;10.122;2022-12-24T15:58:25;8.80;99.90
11944;DHT22;6031;50.220;10.122;2022-12-24T16:03:33;8.70;99.90
11944;DHT22;6031;50.220;10.122;2022-12-24T16:06:00;8.50;99.90
11944;DHT22;6031;50.220;10.122;2022-12-24T16:08:31;8.40;99.90
11944;DHT22;6031;50.220;10.122;2022-12-24T16:11:13;8.30;99.90
11944;DHT22;6031;50.220;10.122;2022-12-24T16:16:18;8.30;99.90
11944;DHT22;6031;50.220;10.122;2022-12-24T16:18:51;8.40;99.90
11944;DHT22;6031;50.220;10.122;2022-12-24T16:21:41;8.40;99.90
11944;DHT22;6031;50.220;10.122;2022-12-24T16:24:19;8.30;99.90
11944;DHT22;6031;50.220;10.122;2022-12-24T16:26:45;8.30;99.90
11944;DHT22;6031;50.220;10.122;2022-12-24T16:29:13;8.30;99.90
11944;DHT22;6031;50.220;10.122;2022-12-24T16:31:48;8.30;99.90
11944;DHT22;6031;50.220;10.122;2022-12-24T16:34:15;8.20;99.90
11944;DHT22;6031;50.220;10.122;2022-12-24T16:36:43;8.10;99.90
11944;DHT22;6031;50.220;10.122;2022-12-24T16:39:17;8.00;99.90
11944;DHT22;6031;50.220;10.122;2022-12-24T16:41:50;8.00;99.90
11944;DHT22;6031;50.220;10.122;2022-12-24T16:44:35;8.10;99.90
11944;DHT22;6031;50.220;10.122;2022-12-24T16:47:01;8.10;99.90
11944;DHT22;6031;50.220;10.122;2022-12-24T16:49:27;8.20;99.90
11944;DHT22;6031;50.220;10.122;2022-12-24T16:51:53;8.20;99.90
11944;DHT22;6031;50.220;10.122;2022-12-24T16:54:19;8.30;99.90
11944;DHT22;6031;50.220;10.122;2022-12-24T16:56:44;8.30;99.90
11944;DHT22;6031;50.220;10.122;2022-12-24T16:59:19;8.30;99.90
11944;DHT22;6031;50.220;10.122;2022-12-24T17:01:45;8.30;99.90
11944;DHT22;6031;50.220;10.122;2022-12-24T17:04:11;8.30;99.90
11944;DHT22;6031;50.220;10.122;2022-12-24T17:06:37;8.20;99.90
11944;DHT22;6031;50.220;10.122;2022-12-24T17:09:03;8.10;99.90
11944;DHT22;6031;50.220;10.122;2022-12-24T17:11:29;8.00;99.90
11944;DHT22;6031;50.220;10.122;2022-12-24T17:13:55;7.80;99.90
11944;DHT22;6031;50.220;10.122;2022-12-24T17:16:20;7.70;99.90
11944;DHT22;6031;50.220;10.122;2022-12-24T17:18:47;7.60;99.90
11944;DHT22;6031;50.220;10.122;2022-12-24T17:21:13;7.70;99.90
11944;DHT22;6031;50.220;10.122;2022-12-24T17:23:41;7.60;99.90
11944;DHT22;6031;50.220;10.122;2022-12-24T17:26:08;7.60;99.90
11944;DHT22;6031;50.220;10.122;2022-12-24T17:28:34;7.70;99.90